createdAt,value
2022-11-16T00:45:31.422Z,63.55
2022-11-16T00:48:00.952Z,63.60
2022-11-16T00:50:29.584Z,63.69
2022-11-16T00:52:57.421Z,63.71
2022-11-16T00:55:25.615Z,63.85
2022-11-16T00:57:53.486Z,63.85
2022-11-16T01:47:17.880Z,65.53
2022-11-16T01:49:48.868Z,65.50
2022-11-16T01:52:20.512Z,65.52
2022-11-16T01:54:48.857Z,65.59
2022-11-16T01:57:17.209Z,65.69
2022-11-16T02:00:03.490Z,65.48
2022-11-16T02:46:37.601Z,66.35
2022-11-16T02:49:09.822Z,66.32
2022-11-16T02:51:38.132Z,66.24
2022-11-16T02:54:08.733Z,66.15
2022-11-16T02:56:42.920Z,66.20
2022-11-16T02:59:17.383Z,66.26
2022-11-16T03:45:40.762Z,66.73
2022-11-16T03:48:10.523Z,66.83
2022-11-16T03:50:38.406Z,66.71
2022-11-16T03:53:06.581Z,66.75
2022-11-16T03:55:35.997Z,66.94
2022-11-16T03:58:04.369Z,66.92
2022-11-16T04:47:26.677Z,66.97
2022-11-16T04:49:54.698Z,66.71
2022-11-16T04:52:23.444Z,66.83
2022-11-16T04:54:52.636Z,66.81
2022-11-16T04:57:20.551Z,66.82
2022-11-16T04:59:49.924Z,66.80
2022-11-16T05:31:40.432Z,66.64
2022-11-16T05:34:09.954Z,66.64
2022-11-16T05:36:38.823Z,66.66
2022-11-16T05:39:07.446Z,66.64
2022-11-16T05:41:37.527Z,66.59
2022-11-16T05:44:05.542Z,66.73
2022-11-16T05:46:33.404Z,66.74
2022-11-16T05:49:04.201Z,66.65
2022-11-16T05:51:32.005Z,66.70
2022-11-16T05:54:00.021Z,66.64
2022-11-16T05:56:28.253Z,66.62
2022-11-16T05:58:56.243Z,66.63
2022-11-16T06:01:24.091Z,66.60
2022-11-16T06:03:52.576Z,66.50
2022-11-16T06:06:21.983Z,66.60
2022-11-16T06:08:51.718Z,66.59
2022-11-16T06:11:24.773Z,66.59
2022-11-16T06:13:52.698Z,66.54
2022-11-16T06:16:20.547Z,66.46
2022-11-16T06:18:48.894Z,66.44
2022-11-16T06:21:18.297Z,66.62
2022-11-16T06:23:48.392Z,66.55
2022-11-16T06:26:16.159Z,66.63
2022-11-16T06:28:44.904Z,66.81
2022-11-16T06:31:13.238Z,66.59
2022-11-16T06:33:43.355Z,66.57
2022-11-16T06:36:19.690Z,66.79
2022-11-16T06:38:49.324Z,66.19
2022-11-16T06:41:17.741Z,65.76
2022-11-16T06:43:49.561Z,65.76
2022-11-16T06:46:20.921Z,65.66
2022-11-16T06:48:49.277Z,65.41
2022-11-16T06:51:18.272Z,65.04
2022-11-16T06:53:47.017Z,60.45
2022-11-16T06:56:16.633Z,58.28
2022-11-16T06:58:53.235Z,55.10
2022-11-16T07:01:22.112Z,56.02
2022-11-16T07:03:50.978Z,57.71
2022-11-16T07:06:19.343Z,57.44
2022-11-16T07:08:47.648Z,60.08
2022-11-16T07:11:22.049Z,60.58
2022-11-16T07:13:50.328Z,60.56
2022-11-16T07:16:18.258Z,60.49
2022-11-16T07:18:53.396Z,60.75
2022-11-16T07:21:21.268Z,60.87
2022-11-16T07:23:49.363Z,60.74
2022-11-16T07:26:22.221Z,60.95
2022-11-16T07:29:03.838Z,60.99
2022-11-16T07:31:33.742Z,60.96
2022-11-16T07:34:30.919Z,61.09
2022-11-16T07:37:10.768Z,61.19
2022-11-16T07:39:38.814Z,60.94
2022-11-16T07:42:12.054Z,61.10
2022-11-16T07:45:07.415Z,61.14
2022-11-16T07:47:40.868Z,61.32
2022-11-16T07:50:14.728Z,61.28
2022-11-16T07:52:46.576Z,61.30
2022-11-16T07:55:21.507Z,61.32
2022-11-16T07:57:54.030Z,61.36
2022-11-16T08:00:23.595Z,61.43
2022-11-16T08:02:59.450Z,61.42
2022-11-16T08:05:31.303Z,61.42
2022-11-16T08:07:59.181Z,61.54
2022-11-16T08:10:27.810Z,61.53
2022-11-16T08:13:01.456Z,61.40
2022-11-16T08:15:29.928Z,61.41
2022-11-16T08:18:00.936Z,61.58
2022-11-16T08:20:31.354Z,61.51
2022-11-16T08:23:05.078Z,61.52
2022-11-16T08:25:35.557Z,61.49
2022-11-16T08:28:05.783Z,61.59
2022-11-16T08:30:33.818Z,61.38
2022-11-16T08:33:02.078Z,61.46
2022-11-16T08:35:30.040Z,61.42
2022-11-16T08:37:58.352Z,61.40
2022-11-16T08:40:29.090Z,61.51
2022-11-16T08:42:58.311Z,61.53
2022-11-16T08:45:28.101Z,61.50
2022-11-16T08:48:05.053Z,61.42
2022-11-16T08:50:55.492Z,61.56
2022-11-16T08:53:24.387Z,61.41
2022-11-16T08:55:52.960Z,61.63
2022-11-16T08:58:20.943Z,61.56
2022-11-16T09:00:51.564Z,61.63
2022-11-16T09:03:19.520Z,61.64
2022-11-16T09:05:49.470Z,61.55
2022-11-16T09:08:17.716Z,61.67
2022-11-16T09:10:46.306Z,61.67
2022-11-16T09:13:16.174Z,61.66
2022-11-16T09:15:44.802Z,61.68
2022-11-16T09:18:14.529Z,61.70
2022-11-16T09:20:44.734Z,61.75
2022-11-16T09:23:12.891Z,61.86
2022-11-16T09:25:45.215Z,61.70
2022-11-16T09:28:13.367Z,61.76
2022-11-16T09:30:41.656Z,61.70
2022-11-16T09:33:10.246Z,61.74
2022-11-16T09:35:40.864Z,61.69
2022-11-16T09:38:10.097Z,61.66
2022-11-16T09:40:38.728Z,61.70
2022-11-16T09:43:08.275Z,61.66
2022-11-16T09:45:38.266Z,61.65
2022-11-16T09:48:06.625Z,61.66
2022-11-16T09:50:42.686Z,61.65
2022-11-16T09:53:28.888Z,61.65
2022-11-16T09:55:57.924Z,61.69
2022-11-16T09:58:27.166Z,61.78
2022-11-16T10:00:57.450Z,61.69
2022-11-16T10:03:26.157Z,61.68
2022-11-16T10:05:57.430Z,61.72
2022-11-16T10:08:28.000Z,61.70
2022-11-16T10:10:59.541Z,61.69
2022-11-16T10:13:30.929Z,61.73
2022-11-16T10:16:01.306Z,61.76
2022-11-16T10:18:34.489Z,61.81
2022-11-16T10:21:08.733Z,61.73
2022-11-16T10:23:40.352Z,61.73
2022-11-16T10:26:12.671Z,61.74
2022-11-16T10:28:49.000Z,61.80
2022-11-16T10:31:19.155Z,61.67
2022-11-16T10:33:48.866Z,61.74
2022-11-16T10:36:21.619Z,61.77
2022-11-16T10:38:50.185Z,61.79
2022-11-16T10:41:21.012Z,61.84
2022-11-16T10:43:49.384Z,61.77
2022-11-16T10:46:19.324Z,61.72
2022-11-16T10:48:50.714Z,61.74
2022-11-16T10:51:21.107Z,61.81
2022-11-16T10:53:50.050Z,61.77
2022-11-16T10:56:19.404Z,61.81
2022-11-16T10:58:52.518Z,61.80
2022-11-16T11:01:30.431Z,61.77
2022-11-16T11:03:58.690Z,61.75
2022-11-16T11:06:40.687Z,61.80
2022-11-16T11:09:15.599Z,61.82
2022-11-16T11:12:01.029Z,61.71
2022-11-16T11:14:29.250Z,61.87
2022-11-16T11:16:57.412Z,61.81
2022-11-16T11:19:26.156Z,61.78
2022-11-16T11:21:58.714Z,61.70
2022-11-16T11:27:58.812Z,61.87
2022-11-16T11:30:30.850Z,61.80
2022-11-16T11:32:58.973Z,61.83
2022-11-16T11:35:28.408Z,61.75
2022-11-16T11:38:03.390Z,61.81
2022-11-16T11:40:36.348Z,61.84
2022-11-16T11:43:07.982Z,61.69
2022-11-16T11:45:37.277Z,61.67
2022-11-16T11:48:07.417Z,61.73
2022-11-16T11:50:44.825Z,61.71
2022-11-16T11:53:28.667Z,61.76
2022-11-16T11:55:57.393Z,61.78
2022-11-16T11:58:27.971Z,61.79
2022-11-16T12:01:01.363Z,61.77
2022-11-16T12:03:52.263Z,61.75
2022-11-16T12:06:24.514Z,61.71
2022-11-16T12:09:00.335Z,61.81
2022-11-16T12:11:30.031Z,61.73
2022-11-16T12:14:02.040Z,61.75
2022-11-16T12:16:45.088Z,61.73
2022-11-16T12:19:31.325Z,61.73
2022-11-16T12:22:02.698Z,61.75
2022-11-16T12:24:36.590Z,61.76
2022-11-16T12:30:13.106Z,61.72
2022-11-16T12:32:57.736Z,61.73
2022-11-16T12:35:43.767Z,61.81
2022-11-16T12:38:24.856Z,61.75
2022-11-16T12:40:57.359Z,61.78
2022-11-16T12:43:28.357Z,61.78
2022-11-16T12:46:01.038Z,61.79
2022-11-16T12:48:47.955Z,61.76
2022-11-16T12:51:18.864Z,61.80
2022-11-16T12:53:50.859Z,61.73
2022-11-16T12:56:22.789Z,61.78
2022-11-16T12:58:57.032Z,61.72
2022-11-16T13:01:26.733Z,61.79
2022-11-16T13:03:55.755Z,61.73
2022-11-16T13:06:27.602Z,61.85
2022-11-16T13:09:02.023Z,61.74
2022-11-16T13:11:33.768Z,61.70
2022-11-16T13:14:06.802Z,61.66
2022-11-16T13:16:34.932Z,61.76
2022-11-16T13:19:03.687Z,61.70
2022-11-16T13:21:34.268Z,61.75
2022-11-16T13:24:24.435Z,61.67
2022-11-16T13:27:06.390Z,61.82
2022-11-16T13:29:45.884Z,61.74
2022-11-16T13:32:16.106Z,61.75
2022-11-16T13:34:44.272Z,61.75
2022-11-16T13:37:30.585Z,61.77
2022-11-16T13:40:15.050Z,61.74
2022-11-16T13:43:02.618Z,61.71
2022-11-16T13:48:25.351Z,61.69
2022-11-16T13:51:12.201Z,61.75
2022-11-16T13:54:37.765Z,61.74
2022-11-16T13:56:29.907Z,61.69
2022-11-16T13:59:15.980Z,61.74
2022-11-16T14:04:51.518Z,61.79
2022-11-16T14:07:36.399Z,61.78
2022-11-16T14:10:08.781Z,61.66
2022-11-16T14:12:58.220Z,61.82
2022-11-16T14:15:26.739Z,61.70
2022-11-16T14:17:59.301Z,61.71
2022-11-16T14:20:43.819Z,61.62
2022-11-16T14:23:22.459Z,61.69
2022-11-16T14:25:51.209Z,61.66
2022-11-16T14:28:34.033Z,61.69
2022-11-16T14:31:10.817Z,61.62
2022-11-16T14:33:39.655Z,61.60
2022-11-16T14:36:07.760Z,61.60
2022-11-16T14:38:37.688Z,61.67
2022-11-16T14:41:05.923Z,61.78
2022-11-16T14:43:35.424Z,61.61
2022-11-16T14:46:05.579Z,61.64
2022-11-16T14:48:33.229Z,61.73
2022-11-16T14:51:03.129Z,61.60
2022-11-16T14:53:30.900Z,61.74
2022-11-16T14:56:08.608Z,61.63
2022-11-16T14:58:37.440Z,61.66
2022-11-16T15:01:05.598Z,61.63
2022-11-16T15:03:35.185Z,61.60
2022-11-16T15:06:03.333Z,61.69
2022-11-16T15:08:32.532Z,61.73
2022-11-16T15:11:00.913Z,61.92
2022-11-16T15:13:30.096Z,61.85
2022-11-16T15:16:10.642Z,61.81
2022-11-16T15:18:38.407Z,61.91
2022-11-16T15:21:06.353Z,61.95
2022-11-16T15:23:34.164Z,61.93
2022-11-16T15:26:03.481Z,61.97
2022-11-16T15:28:33.249Z,62.00
2022-11-16T15:31:01.838Z,61.86
2022-11-16T15:33:29.879Z,61.98
2022-11-16T15:35:57.572Z,61.89
2022-11-16T15:38:26.013Z,61.88
2022-11-16T15:40:55.075Z,61.91
2022-11-16T15:43:23.730Z,61.94
2022-11-16T15:45:52.792Z,61.92
2022-11-16T15:48:21.019Z,62.03
2022-11-16T15:51:04.099Z,61.92
2022-11-16T15:53:36.800Z,61.91
2022-11-16T15:56:05.173Z,61.93
2022-11-16T15:58:33.226Z,62.04
2022-11-16T16:01:02.604Z,61.94
2022-11-16T16:03:31.773Z,62.06
2022-11-16T16:06:06.960Z,62.07
2022-11-16T16:08:36.391Z,62.04
2022-11-16T16:11:06.952Z,61.86
2022-11-16T16:13:36.018Z,61.89
2022-11-16T16:16:20.571Z,61.80
2022-11-16T16:18:48.162Z,61.86
2022-11-16T16:21:16.032Z,61.91
2022-11-16T16:23:47.107Z,61.96
2022-11-16T16:26:15.136Z,62.00
2022-11-16T16:28:42.889Z,62.02
2022-11-16T16:31:10.660Z,62.04
2022-11-16T16:33:40.277Z,62.04
2022-11-16T16:36:08.185Z,61.96
2022-11-16T16:38:35.944Z,61.93
2022-11-16T16:41:03.891Z,61.85
2022-11-16T16:43:32.164Z,62.00
2022-11-16T16:46:00.657Z,61.97
2022-11-16T16:48:28.255Z,61.95
2022-11-16T16:50:57.325Z,61.84
2022-11-16T16:53:25.285Z,61.75
2022-11-16T16:56:06.170Z,61.66
2022-11-16T16:58:36.072Z,61.57
2022-11-16T17:01:07.227Z,61.58
2022-11-16T17:03:35.055Z,61.66
2022-11-16T17:06:04.808Z,61.52
2022-11-16T17:08:33.892Z,61.69
2022-11-16T17:11:01.601Z,61.48
2022-11-16T17:13:43.064Z,61.67
2022-11-16T17:16:10.737Z,61.61
2022-11-16T17:18:38.401Z,61.62
2022-11-16T17:21:07.849Z,61.63
2022-11-16T17:23:35.869Z,61.58
2022-11-16T17:26:04.538Z,61.52
2022-11-16T17:28:32.978Z,61.47
2022-11-16T17:31:03.845Z,61.55
2022-11-16T17:33:34.396Z,61.37
2022-11-16T17:36:04.093Z,61.43
2022-11-16T17:38:33.099Z,61.44
2022-11-16T17:41:03.987Z,61.38
2022-11-16T17:43:31.846Z,61.41
2022-11-16T17:46:09.011Z,61.41
2022-11-16T17:48:38.094Z,61.38
2022-11-16T17:51:08.178Z,61.52
2022-11-16T17:53:38.143Z,61.47
2022-11-16T17:56:07.140Z,61.34
2022-11-16T17:58:34.851Z,61.42
2022-11-16T18:01:02.584Z,61.36
2022-11-16T18:03:30.549Z,61.41
2022-11-16T18:06:04.888Z,61.32
2022-11-16T18:08:33.241Z,61.42
2022-11-16T18:11:06.380Z,61.34
2022-11-16T18:13:34.621Z,61.38
2022-11-16T18:16:03.280Z,61.28
2022-11-16T18:18:31.549Z,61.39
2022-11-16T18:21:02.056Z,61.32
2022-11-16T18:23:30.003Z,61.38
2022-11-16T18:25:57.811Z,61.38
2022-11-16T18:28:26.921Z,61.47
2022-11-16T18:30:54.911Z,61.35
2022-11-16T18:33:25.330Z,61.31
2022-11-16T18:35:57.243Z,61.37
2022-11-16T18:38:24.965Z,61.39
2022-11-16T18:41:09.972Z,61.46
2022-11-16T18:43:40.655Z,61.34
2022-11-16T18:46:08.532Z,61.39
2022-11-16T18:48:36.227Z,61.33
2022-11-16T18:51:04.538Z,61.40
2022-11-16T18:53:33.212Z,61.64
2022-11-16T18:56:01.101Z,61.44
2022-11-16T18:58:49.916Z,61.53
2022-11-16T19:01:18.818Z,61.55
2022-11-16T19:03:46.696Z,61.46
2022-11-16T19:06:14.971Z,61.64
2022-11-16T19:08:43.002Z,61.43
2022-11-16T19:11:11.587Z,61.68
2022-11-16T19:13:39.944Z,61.51
2022-11-16T19:16:08.176Z,61.80
2022-11-16T19:18:37.470Z,61.38
2022-11-16T19:21:06.069Z,61.53
2022-11-16T19:23:37.806Z,61.71
2022-11-16T19:26:05.737Z,61.47
2022-11-16T19:28:35.903Z,61.46
2022-11-16T19:31:07.394Z,61.53
2022-11-16T19:33:35.451Z,61.50
2022-11-16T19:36:08.402Z,61.54
2022-11-16T19:38:36.151Z,61.59
2022-11-16T19:41:04.570Z,61.50
2022-11-16T19:43:39.268Z,61.55
2022-11-16T19:46:08.585Z,61.52
2022-11-16T19:48:36.243Z,61.37
2022-11-16T19:51:08.472Z,61.41
2022-11-16T19:53:36.470Z,61.30
2022-11-16T19:56:04.293Z,61.23
2022-11-16T19:58:32.248Z,61.35
2022-11-16T20:01:03.454Z,61.28
2022-11-16T20:03:31.370Z,61.32
2022-11-16T20:06:06.143Z,61.20
2022-11-16T20:08:35.273Z,61.21
2022-11-16T20:11:03.002Z,61.23
2022-11-16T20:13:30.870Z,61.16
2022-11-16T20:15:58.464Z,61.01
2022-11-16T20:18:28.573Z,60.97
2022-11-16T20:20:56.232Z,60.88
2022-11-16T20:23:23.987Z,60.84
2022-11-16T20:25:53.022Z,60.88
2022-11-16T20:28:20.918Z,60.93
2022-11-16T20:30:48.760Z,60.92
2022-11-16T20:33:16.533Z,61.05
2022-11-16T20:35:44.214Z,61.00
2022-11-16T20:38:11.890Z,61.00
2022-11-16T20:40:39.552Z,60.96
2022-11-16T20:43:09.162Z,61.04
2022-11-16T20:45:36.951Z,61.13
2022-11-16T20:48:05.308Z,61.10
2022-11-16T20:50:36.645Z,61.06
2022-11-16T20:53:04.363Z,61.14
2022-11-16T20:55:32.183Z,61.20
2022-11-16T20:58:00.049Z,61.43
2022-11-16T21:00:30.740Z,61.20
2022-11-16T21:02:59.276Z,61.30
2022-11-16T21:05:26.966Z,61.45
2022-11-16T21:07:54.636Z,61.34
2022-11-16T21:10:22.484Z,61.41
2022-11-16T21:13:08.200Z,61.66
2022-11-16T21:15:42.172Z,61.70
2022-11-16T21:18:09.922Z,61.69
2022-11-16T21:20:37.712Z,61.69
2022-11-16T21:23:05.498Z,61.60
2022-11-16T21:25:33.774Z,61.60
2022-11-16T21:28:02.167Z,61.84
2022-11-16T21:30:30.138Z,61.89
2022-11-16T21:32:59.421Z,62.00
2022-11-16T21:35:27.490Z,61.92
2022-11-16T21:37:55.327Z,62.01
2022-11-16T21:40:23.433Z,62.00
2022-11-16T21:42:52.294Z,62.00
2022-11-16T21:45:20.173Z,62.15
2022-11-16T21:47:48.018Z,62.02
2022-11-16T21:50:31.540Z,61.94
2022-11-16T21:53:00.023Z,62.04
2022-11-16T21:55:27.785Z,62.06
2022-11-16T21:57:55.525Z,62.01
2022-11-16T22:00:23.442Z,62.02
2022-11-16T22:02:51.252Z,62.06
2022-11-16T22:05:38.269Z,62.07
2022-11-16T22:08:06.252Z,62.16
2022-11-16T22:10:33.980Z,62.04
2022-11-16T22:13:02.764Z,62.07
2022-11-16T22:15:30.804Z,62.11
2022-11-16T22:17:58.722Z,62.02
2022-11-16T22:20:30.426Z,62.07
2022-11-16T22:22:59.713Z,62.21
2022-11-16T22:25:30.523Z,62.05
2022-11-16T22:28:19.735Z,61.81
2022-11-16T22:30:51.355Z,61.79
2022-11-16T22:33:19.941Z,61.87
2022-11-16T22:35:51.984Z,61.78
2022-11-16T22:38:23.265Z,61.78
2022-11-16T22:40:52.317Z,62.12
2022-11-16T22:43:21.727Z,61.98
2022-11-16T22:45:50.998Z,62.29
2022-11-16T22:48:18.702Z,62.32
2022-11-16T22:50:46.357Z,62.41
2022-11-16T22:53:15.434Z,62.56
2022-11-16T22:55:43.418Z,62.46
2022-11-16T22:58:11.278Z,62.35
2022-11-16T23:00:42.165Z,62.34
2022-11-16T23:03:10.269Z,62.32
2022-11-16T23:05:38.497Z,62.41
2022-11-16T23:08:08.624Z,62.62
2022-11-16T23:10:58.374Z,62.54
2022-11-16T23:13:47.444Z,62.44
2022-11-16T23:46:24.841Z,62.20
2022-11-16T23:48:53.360Z,62.28
2022-11-16T23:51:23.305Z,62.26
2022-11-16T23:53:51.720Z,62.27
2022-11-16T23:56:19.508Z,62.24
2022-11-16T23:58:47.219Z,62.25
